sensor_id;sensor_type;location;lat;lon;timestamp;temperature;humidity
6536;DHT22;34330;52.08032700;5.40923460;2023-04-24T00:01:03;13.30;90.40
6536;DHT22;34330;52.08032700;5.40923460;2023-04-24T00:03:36;13.30;90.50
6536;DHT22;34330;52.08032700;5.40923460;2023-04-24T00:06:06;13.30;90.60
6536;DHT22;34330;52.08032700;5.40923460;2023-04-24T00:08:34;13.30;90.70
6536;DHT22;34330;52.08032700;5.40923460;2023-04-24T00:11:03;13.30;90.80
6536;DHT22;34330;52.08032700;5.40923460;2023-04-24T00:13:31;13.20;90.70
6536;DHT22;34330;52.08032700;5.40923460;2023-04-24T00:15:58;13.20;90.70
6536;DHT22;34330;52.08032700;5.40923460;2023-04-24T00:18:26;13.20;90.80
6536;DHT22;34330;52.08032700;5.40923460;2023-04-24T00:20:55;13.20;91.00
6536;DHT22;34330;52.08032700;5.40923460;2023-04-24T00:23:23;13.20;90.80
6536;DHT22;34330;52.08032700;5.40923460;2023-04-24T00:25:51;13.20;90.90
6536;DHT22;34330;52.08032700;5.40923460;2023-04-24T00:28:19;13.20;91.00
6536;DHT22;34330;52.08032700;5.40923460;2023-04-24T00:30:48;13.10;91.00
6536;DHT22;34330;52.08032700;5.40923460;2023-04-24T00:33:16;13.10;90.90
6536;DHT22;34330;52.08032700;5.40923460;2023-04-24T00:35:43;13.10;90.90
6536;DHT22;34330;52.08032700;5.40923460;2023-04-24T00:38:13;13.10;91.10
6536;DHT22;34330;52.08032700;5.40923460;2023-04-24T00:40:41;13.10;91.20
6536;DHT22;34330;52.08032700;5.40923460;2023-04-24T00:43:09;13.10;91.10
6536;DHT22;34330;52.08032700;5.40923460;2023-04-24T00:45:37;13.10;91.20
6536;DHT22;34330;52.08032700;5.40923460;2023-04-24T00:48:05;13.10;91.30
6536;DHT22;34330;52.08032700;5.40923460;2023-04-24T00:50:35;13.00;91.40
6536;DHT22;34330;52.08032700;5.40923460;2023-04-24T00:53:03;13.10;91.40
6536;DHT22;34330;52.08032700;5.40923460;2023-04-24T00:55:32;13.20;91.30
6536;DHT22;34330;52.08032700;5.40923460;2023-04-24T00:58:00;13.10;91.30
6536;DHT22;34330;52.08032700;5.40923460;2023-04-24T01:00:28;13.10;91.40
6536;DHT22;34330;52.08032700;5.40923460;2023-04-24T01:02:58;13.00;91.40
6536;DHT22;34330;52.08032700;5.40923460;2023-04-24T01:05:26;13.00;91.50
6536;DHT22;34330;52.08032700;5.40923460;2023-04-24T01:07:55;13.00;91.40
6536;DHT22;34330;52.08032700;5.40923460;2023-04-24T01:10:24;13.00;91.40
6536;DHT22;34330;52.08032700;5.40923460;2023-04-24T01:12:54;13.10;91.40
6536;DHT22;34330;52.08032700;5.40923460;2023-04-24T01:15:23;13.10;91.60
6536;DHT22;34330;52.08032700;5.40923460;2023-04-24T01:17:50;13.00;91.80
6536;DHT22;34330;52.08032700;5.40923460;2023-04-24T01:20:19;13.00;91.40
6536;DHT22;34330;52.08032700;5.40923460;2023-04-24T01:22:49;13.00;91.60
6536;DHT22;34330;52.08032700;5.40923460;2023-04-24T01:25:17;13.00;91.50
6536;DHT22;34330;52.08032700;5.40923460;2023-04-24T01:27:45;13.00;91.50
6536;DHT22;34330;52.08032700;5.40923460;2023-04-24T01:30:14;13.00;91.60
6536;DHT22;34330;52.08032700;5.40923460;2023-04-24T01:32:42;13.00;91.70
6536;DHT22;34330;52.08032700;5.40923460;2023-04-24T01:35:11;13.00;91.70
6536;DHT22;34330;52.08032700;5.40923460;2023-04-24T01:37:39;13.00;91.60
6536;DHT22;34330;52.08032700;5.40923460;2023-04-24T01:40:09;13.10;91.80
6536;DHT22;34330;52.08032700;5.40923460;2023-04-24T01:42:38;13.10;91.90
6536;DHT22;34330;52.08032700;5.40923460;2023-04-24T01:45:07;13.10;91.90
6536;DHT22;34330;52.08032700;5.40923460;2023-04-24T01:47:37;13.10;91.90
6536;DHT22;34330;52.08032700;5.40923460;2023-04-24T01:50:06;13.20;91.90
6536;DHT22;34330;52.08032700;5.40923460;2023-04-24T01:52:35;13.10;92.00
6536;DHT22;34330;52.08032700;5.40923460;2023-04-24T01:55:03;13.10;92.00
6536;DHT22;34330;52.08032700;5.40923460;2023-04-24T01:57:33;13.20;92.10
6536;DHT22;34330;52.08032700;5.40923460;2023-04-24T02:00:01;13.20;92.10
6536;DHT22;34330;52.08032700;5.40923460;2023-04-24T02:02:30;13.20;92.10
6536;DHT22;34330;52.08032700;5.40923460;2023-04-24T02:04:59;13.20;92.10
6536;DHT22;34330;52.08032700;5.40923460;2023-04-24T02:07:27;13.20;92.00
6536;DHT22;34330;52.08032700;5.40923460;2023-04-24T02:09:55;13.20;92.00
6536;DHT22;34330;52.08032700;5.40923460;2023-04-24T02:12:23;13.20;91.80
6536;DHT22;34330;52.08032700;5.40923460;2023-04-24T02:14:52;13.20;92.10
6536;DHT22;34330;52.08032700;5.40923460;2023-04-24T02:17:20;13.20;91.90
6536;DHT22;34330;52.08032700;5.40923460;2023-04-24T02:19:48;13.20;91.90
6536;DHT22;34330;52.08032700;5.40923460;2023-04-24T02:22:16;13.20;91.70
6536;DHT22;34330;52.08032700;5.40923460;2023-04-24T02:24:44;13.30;91.80
6536;DHT22;34330;52.08032700;5.40923460;2023-04-24T02:27:12;13.20;91.90
6536;DHT22;34330;52.08032700;5.40923460;2023-04-24T02:29:40;13.20;91.80
6536;DHT22;34330;52.08032700;5.40923460;2023-04-24T02:32:09;13.20;91.80
6536;DHT22;34330;52.08032700;5.40923460;2023-04-24T02:34:39;13.30;91.90
6536;DHT22;34330;52.08032700;5.40923460;2023-04-24T02:37:07;13.20;91.90
6536;DHT22;34330;52.08032700;5.40923460;2023-04-24T02:39:35;13.20;92.00
6536;DHT22;34330;52.08032700;5.40923460;2023-04-24T02:42:03;13.20;92.00
6536;DHT22;34330;52.08032700;5.40923460;2023-04-24T02:44:31;13.20;92.00
6536;DHT22;34330;52.08032700;5.40923460;2023-04-24T02:46:58;13.20;92.00
6536;DHT22;34330;52.08032700;5.40923460;2023-04-24T02:49:28;13.20;92.00
6536;DHT22;34330;52.08032700;5.40923460;2023-04-24T02:51:55;13.20;92.00
6536;DHT22;34330;52.08032700;5.40923460;2023-04-24T02:54:23;13.30;91.90
6536;DHT22;34330;52.08032700;5.40923460;2023-04-24T02:56:51;13.30;92.00
6536;DHT22;34330;52.08032700;5.40923460;2023-04-24T02:59:19;13.30;92.00
6536;DHT22;34330;52.08032700;5.40923460;2023-04-24T03:01:47;13.30;92.00
6536;DHT22;34330;52.08032700;5.40923460;2023-04-24T03:04:15;13.30;92.00
6536;DHT22;34330;52.08032700;5.40923460;2023-04-24T03:06:48;13.30;92.00
6536;DHT22;34330;52.08032700;5.40923460;2023-04-24T03:09:21;13.20;92.00
6536;DHT22;34330;52.08032700;5.40923460;2023-04-24T03:11:49;13.30;92.00
6536;DHT22;34330;52.08032700;5.40923460;2023-04-24T03:14:17;13.30;92.00
6536;DHT22;34330;52.08032700;5.40923460;2023-04-24T03:16:45;13.30;92.10
6536;DHT22;34330;52.08032700;5.40923460;2023-04-24T03:19:13;13.30;92.10
6536;DHT22;34330;52.08032700;5.40923460;2023-04-24T03:21:41;13.20;92.10
6536;DHT22;34330;52.08032700;5.40923460;2023-04-24T03:24:10;13.30;92.20
6536;DHT22;34330;52.08032700;5.40923460;2023-04-24T03:26:38;13.30;92.20
6536;DHT22;34330;52.08032700;5.40923460;2023-04-24T03:29:06;13.30;92.10
6536;DHT22;34330;52.08032700;5.40923460;2023-04-24T03:31:34;13.20;91.90
6536;DHT22;34330;52.08032700;5.40923460;2023-04-24T03:34:02;13.30;91.90
6536;DHT22;34330;52.08032700;5.40923460;2023-04-24T03:36:30;13.20;91.90
6536;DHT22;34330;52.08032700;5.40923460;2023-04-24T03:38:58;13.20;91.80
6536;DHT22;34330;52.08032700;5.40923460;2023-04-24T03:41:27;13.20;92.00
6536;DHT22;34330;52.08032700;5.40923460;2023-04-24T03:43:55;13.20;92.10
6536;DHT22;34330;52.08032700;5.40923460;2023-04-24T03:46:23;13.20;92.20
6536;DHT22;34330;52.08032700;5.40923460;2023-04-24T03:48:51;13.20;92.30
6536;DHT22;34330;52.08032700;5.40923460;2023-04-24T03:51:19;13.20;92.20
6536;DHT22;34330;52.08032700;5.40923460;2023-04-24T03:53:46;13.20;92.30
6536;DHT22;34330;52.08032700;5.40923460;2023-04-24T03:56:15;13.20;92.20
6536;DHT22;34330;52.08032700;5.40923460;2023-04-24T03:58:44;13.20;92.30
6536;DHT22;34330;52.08032700;5.40923460;2023-04-24T04:01:12;13.30;92.40
6536;DHT22;34330;52.08032700;5.40923460;2023-04-24T04:03:42;13.30;92.30
6536;DHT22;34330;52.08032700;5.40923460;2023-04-24T04:06:10;13.30;92.30
6536;DHT22;34330;52.08032700;5.40923460;2023-04-24T04:08:39;13.30;92.20
6536;DHT22;34330;52.08032700;5.40923460;2023-04-24T04:11:07;13.30;92.20
6536;DHT22;34330;52.08032700;5.40923460;2023-04-24T04:13:35;13.30;92.30
6536;DHT22;34330;52.08032700;5.40923460;2023-04-24T04:16:05;13.30;92.60
6536;DHT22;34330;52.08032700;5.40923460;2023-04-24T04:18:33;13.30;92.30
6536;DHT22;34330;52.08032700;5.40923460;2023-04-24T04:21:01;13.30;92.20
6536;DHT22;34330;52.08032700;5.40923460;2023-04-24T04:23:29;13.40;92.20
6536;DHT22;34330;52.08032700;5.40923460;2023-04-24T04:25:57;13.40;92.10
6536;DHT22;34330;52.08032700;5.40923460;2023-04-24T04:28:25;13.40;92.10
6536;DHT22;34330;52.08032700;5.40923460;2023-04-24T04:30:54;13.40;92.20
6536;DHT22;34330;52.08032700;5.40923460;2023-04-24T04:33:23;13.40;92.20
6536;DHT22;34330;52.08032700;5.40923460;2023-04-24T04:35:52;13.40;92.20
6536;DHT22;34330;52.08032700;5.40923460;2023-04-24T04:38:19;13.40;92.20
6536;DHT22;34330;52.08032700;5.40923460;2023-04-24T04:40:48;13.40;92.50
6536;DHT22;34330;52.08032700;5.40923460;2023-04-24T04:43:16;13.40;92.00
6536;DHT22;34330;52.08032700;5.40923460;2023-04-24T04:45:44;13.50;92.20
6536;DHT22;34330;52.08032700;5.40923460;2023-04-24T04:48:12;13.50;92.10
6536;DHT22;34330;52.08032700;5.40923460;2023-04-24T04:50:42;13.40;92.00
6536;DHT22;34330;52.08032700;5.40923460;2023-04-24T04:53:10;13.50;92.20
6536;DHT22;34330;52.08032700;5.40923460;2023-04-24T04:55:38;13.50;92.10
6536;DHT22;34330;52.08032700;5.40923460;2023-04-24T04:58:06;13.50;92.10
6536;DHT22;34330;52.08032700;5.40923460;2023-04-24T05:00:34;13.50;92.10
6536;DHT22;34330;52.08032700;5.40923460;2023-04-24T05:03:04;13.50;92.10
6536;DHT22;34330;52.08032700;5.40923460;2023-04-24T05:05:48;13.50;92.00
6536;DHT22;34330;52.08032700;5.40923460;2023-04-24T05:08:16;13.50;92.00
6536;DHT22;34330;52.08032700;5.40923460;2023-04-24T05:10:53;13.50;92.10
6536;DHT22;34330;52.08032700;5.40923460;2023-04-24T05:13:21;13.50;92.10
6536;DHT22;34330;52.08032700;5.40923460;2023-04-24T05:16:05;13.50;91.90
6536;DHT22;34330;52.08032700;5.40923460;2023-04-24T05:18:33;13.60;92.00
6536;DHT22;34330;52.08032700;5.40923460;2023-04-24T05:21:02;13.50;92.00
6536;DHT22;34330;52.08032700;5.40923460;2023-04-24T05:23:30;13.60;92.00
6536;DHT22;34330;52.08032700;5.40923460;2023-04-24T05:25:58;13.60;92.00
6536;DHT22;34330;52.08032700;5.40923460;2023-04-24T05:28:26;13.60;92.10
6536;DHT22;34330;52.08032700;5.40923460;2023-04-24T05:30:55;13.60;92.10
6536;DHT22;34330;52.08032700;5.40923460;2023-04-24T05:33:23;13.60;92.00
6536;DHT22;34330;52.08032700;5.40923460;2023-04-24T05:35:51;13.60;92.00
6536;DHT22;34330;52.08032700;5.40923460;2023-04-24T05:38:20;13.60;91.80
6536;DHT22;34330;52.08032700;5.40923460;2023-04-24T05:40:48;13.60;92.10
6536;DHT22;34330;52.08032700;5.40923460;2023-04-24T05:43:16;14.90;92.60
6536;DHT22;34330;52.08032700;5.40923460;2023-04-24T05:45:44;13.60;92.10
6536;DHT22;34330;52.08032700;5.40923460;2023-04-24T05:48:12;13.70;92.10
6536;DHT22;34330;52.08032700;5.40923460;2023-04-24T05:50:40;13.60;92.00
6536;DHT22;34330;52.08032700;5.40923460;2023-04-24T05:53:08;13.60;92.00
6536;DHT22;34330;52.08032700;5.40923460;2023-04-24T05:55:38;13.60;91.90
6536;DHT22;34330;52.08032700;5.40923460;2023-04-24T05:58:06;13.60;91.90
6536;DHT22;34330;52.08032700;5.40923460;2023-04-24T06:00:34;13.60;91.90
6536;DHT22;34330;52.08032700;5.40923460;2023-04-24T06:03:02;13.60;91.80
6536;DHT22;34330;52.08032700;5.40923460;2023-04-24T06:05:31;13.60;91.80
6536;DHT22;34330;52.08032700;5.40923460;2023-04-24T06:07:59;13.50;91.80
6536;DHT22;34330;52.08032700;5.40923460;2023-04-24T06:10:27;13.50;91.70
6536;DHT22;34330;52.08032700;5.40923460;2023-04-24T06:12:56;13.40;91.70
6536;DHT22;34330;52.08032700;5.40923460;2023-04-24T06:15:28;13.40;91.70
6536;DHT22;34330;52.08032700;5.40923460;2023-04-24T06:17:56;13.40;91.70
6536;DHT22;34330;52.08032700;5.40923460;2023-04-24T06:20:25;13.40;91.70
6536;DHT22;34330;52.08032700;5.40923460;2023-04-24T06:22:53;13.30;91.70
6536;DHT22;34330;52.08032700;5.40923460;2023-04-24T06:25:21;13.20;91.70
6536;DHT22;34330;52.08032700;5.40923460;2023-04-24T06:27:49;13.20;91.70
6536;DHT22;34330;52.08032700;5.40923460;2023-04-24T06:30:19;13.20;91.80
6536;DHT22;34330;52.08032700;5.40923460;2023-04-24T06:32:47;13.20;91.90
6536;DHT22;34330;52.08032700;5.40923460;2023-04-24T06:35:15;13.20;91.70
6536;DHT22;34330;52.08032700;5.40923460;2023-04-24T06:37:43;13.10;91.80
6536;DHT22;34330;52.08032700;5.40923460;2023-04-24T06:40:11;13.10;91.80
6536;DHT22;34330;52.08032700;5.40923460;2023-04-24T06:42:39;13.10;91.80
6536;DHT22;34330;52.08032700;5.40923460;2023-04-24T06:45:08;13.00;91.90
6536;DHT22;34330;52.08032700;5.40923460;2023-04-24T06:47:37;13.00;92.00
6536;DHT22;34330;52.08032700;5.40923460;2023-04-24T06:50:07;13.00;92.00
6536;DHT22;34330;52.08032700;5.40923460;2023-04-24T06:52:35;13.00;92.10
6536;DHT22;34330;52.08032700;5.40923460;2023-04-24T06:55:03;12.90;92.20
6536;DHT22;34330;52.08032700;5.40923460;2023-04-24T06:57:32;12.90;92.20
6536;DHT22;34330;52.08032700;5.40923460;2023-04-24T07:00:00;12.90;92.20
6536;DHT22;34330;52.08032700;5.40923460;2023-04-24T07:02:28;12.90;92.20
6536;DHT22;34330;52.08032700;5.40923460;2023-04-24T07:04:57;12.80;92.20
6536;DHT22;34330;52.08032700;5.40923460;2023-04-24T07:07:25;12.80;92.20
6536;DHT22;34330;52.08032700;5.40923460;2023-04-24T07:09:53;12.80;92.40
6536;DHT22;34330;52.08032700;5.40923460;2023-04-24T07:12:22;12.80;92.40
6536;DHT22;34330;52.08032700;5.40923460;2023-04-24T07:14:50;12.70;92.40
6536;DHT22;34330;52.08032700;5.40923460;2023-04-24T07:17:18;12.70;92.50
6536;DHT22;34330;52.08032700;5.40923460;2023-04-24T07:19:46;12.70;92.50
6536;DHT22;34330;52.08032700;5.40923460;2023-04-24T07:22:15;12.70;92.40
6536;DHT22;34330;52.08032700;5.40923460;2023-04-24T07:24:44;12.70;92.30
6536;DHT22;34330;52.08032700;5.40923460;2023-04-24T07:27:12;12.60;92.30
6536;DHT22;34330;52.08032700;5.40923460;2023-04-24T07:29:41;12.60;92.30
6536;DHT22;34330;52.08032700;5.40923460;2023-04-24T07:32:10;12.60;92.20
6536;DHT22;34330;52.08032700;5.40923460;2023-04-24T07:34:38;12.50;92.20
6536;DHT22;34330;52.08032700;5.40923460;2023-04-24T07:37:06;12.50;92.40
6536;DHT22;34330;52.08032700;5.40923460;2023-04-24T07:39:35;12.80;92.60
6536;DHT22;34330;52.08032700;5.40923460;2023-04-24T07:42:03;12.50;92.50
6536;DHT22;34330;52.08032700;5.40923460;2023-04-24T07:44:31;12.50;92.60
6536;DHT22;34330;52.08032700;5.40923460;2023-04-24T07:46:59;12.50;92.70
6536;DHT22;34330;52.08032700;5.40923460;2023-04-24T07:49:27;12.50;92.60
6536;DHT22;34330;52.08032700;5.40923460;2023-04-24T07:51:55;12.50;92.90
6536;DHT22;34330;52.08032700;5.40923460;2023-04-24T07:54:23;12.50;92.60
6536;DHT22;34330;52.08032700;5.40923460;2023-04-24T07:56:52;12.50;92.60
6536;DHT22;34330;52.08032700;5.40923460;2023-04-24T07:59:20;12.50;93.00
6536;DHT22;34330;52.08032700;5.40923460;2023-04-24T08:01:48;12.40;92.60
6536;DHT22;34330;52.08032700;5.40923460;2023-04-24T08:04:16;12.50;92.60
6536;DHT22;34330;52.08032700;5.40923460;2023-04-24T08:06:45;12.50;92.70
6536;DHT22;34330;52.08032700;5.40923460;2023-04-24T08:09:14;12.50;92.80
6536;DHT22;34330;52.08032700;5.40923460;2023-04-24T08:11:43;12.50;92.80
6536;DHT22;34330;52.08032700;5.40923460;2023-04-24T08:14:13;12.50;92.80
6536;DHT22;34330;52.08032700;5.40923460;2023-04-24T08:16:41;12.50;92.80
6536;DHT22;34330;52.08032700;5.40923460;2023-04-24T08:19:10;12.50;92.80
6536;DHT22;34330;52.08032700;5.40923460;2023-04-24T08:21:38;12.50;92.70
6536;DHT22;34330;52.08032700;5.40923460;2023-04-24T08:24:06;12.50;92.70
6536;DHT22;34330;52.08032700;5.40923460;2023-04-24T08:26:34;12.50;92.70
6536;DHT22;34330;52.08032700;5.40923460;2023-04-24T08:29:02;12.50;92.70
6536;DHT22;34330;52.08032700;5.40923460;2023-04-24T08:31:32;12.50;92.70
6536;DHT22;34330;52.08032700;5.40923460;2023-04-24T08:34:00;12.50;92.70
6536;DHT22;34330;52.08032700;5.40923460;2023-04-24T08:36:28;12.40;92.70
6536;DHT22;34330;52.08032700;5.40923460;2023-04-24T08:39:09;12.40;92.80
6536;DHT22;34330;52.08032700;5.40923460;2023-04-24T08:41:37;12.40;92.80
6536;DHT22;34330;52.08032700;5.40923460;2023-04-24T08:44:05;12.40;92.90
6536;DHT22;34330;52.08032700;5.40923460;2023-04-24T08:46:37;12.40;92.80
6536;DHT22;34330;52.08032700;5.40923460;2023-04-24T08:49:07;12.40;92.90
6536;DHT22;34330;52.08032700;5.40923460;2023-04-24T08:51:36;12.40;92.90
6536;DHT22;34330;52.08032700;5.40923460;2023-04-24T08:54:05;12.50;92.90
6536;DHT22;34330;52.08032700;5.40923460;2023-04-24T08:56:34;12.40;93.00
6536;DHT22;34330;52.08032700;5.40923460;2023-04-24T08:59:06;12.50;92.60
6536;DHT22;34330;52.08032700;5.40923460;2023-04-24T09:01:34;12.50;92.50
6536;DHT22;34330;52.08032700;5.40923460;2023-04-24T09:04:08;12.50;92.20
6536;DHT22;34330;52.08032700;5.40923460;2023-04-24T09:06:39;12.50;92.10
6536;DHT22;34330;52.08032700;5.40923460;2023-04-24T09:09:10;12.50;91.90
6536;DHT22;34330;52.08032700;5.40923460;2023-04-24T09:11:38;12.50;92.20
6536;DHT22;34330;52.08032700;5.40923460;2023-04-24T09:14:07;13.40;92.50
6536;DHT22;34330;52.08032700;5.40923460;2023-04-24T09:16:36;14.10;92.70
6536;DHT22;34330;52.08032700;5.40923460;2023-04-24T09:19:04;12.50;92.00
6536;DHT22;34330;52.08032700;5.40923460;2023-04-24T09:21:34;12.60;92.10
6536;DHT22;34330;52.08032700;5.40923460;2023-04-24T09:24:04;12.60;92.00
6536;DHT22;34330;52.08032700;5.40923460;2023-04-24T09:26:36;12.60;91.90
6536;DHT22;34330;52.08032700;5.40923460;2023-04-24T09:29:04;12.70;91.80
6536;DHT22;34330;52.08032700;5.40923460;2023-04-24T09:31:32;12.70;91.50
6536;DHT22;34330;52.08032700;5.40923460;2023-04-24T09:34:01;12.70;91.40
6536;DHT22;34330;52.08032700;5.40923460;2023-04-24T09:36:35;12.70;91.70
6536;DHT22;34330;52.08032700;5.40923460;2023-04-24T09:39:04;12.80;91.80
6536;DHT22;34330;52.08032700;5.40923460;2023-04-24T09:41:35;12.80;91.80
6536;DHT22;34330;52.08032700;5.40923460;2023-04-24T09:44:12;12.80;91.60
6536;DHT22;34330;52.08032700;5.40923460;2023-04-24T09:46:41;12.90;91.30
6536;DHT22;34330;52.08032700;5.40923460;2023-04-24T09:49:12;13.00;91.50
6536;DHT22;34330;52.08032700;5.40923460;2023-04-24T09:51:42;13.00;91.60
6536;DHT22;34330;52.08032700;5.40923460;2023-04-24T09:54:15;13.10;91.40
6536;DHT22;34330;52.08032700;5.40923460;2023-04-24T09:56:44;13.10;91.40
6536;DHT22;34330;52.08032700;5.40923460;2023-04-24T09:59:13;13.20;91.10
6536;DHT22;34330;52.08032700;5.40923460;2023-04-24T10:01:41;13.20;90.70
6536;DHT22;34330;52.08032700;5.40923460;2023-04-24T10:04:18;13.20;90.40
6536;DHT22;34330;52.08032700;5.40923460;2023-04-24T10:06:50;13.20;89.80
6536;DHT22;34330;52.08032700;5.40923460;2023-04-24T10:09:20;13.20;89.80
6536;DHT22;34330;52.08032700;5.40923460;2023-04-24T10:11:51;13.30;89.90
6536;DHT22;34330;52.08032700;5.40923460;2023-04-24T10:14:23;13.20;89.90
6536;DHT22;34330;52.08032700;5.40923460;2023-04-24T10:16:53;13.20;89.40
6536;DHT22;34330;52.08032700;5.40923460;2023-04-24T10:19:25;13.20;89.60
6536;DHT22;34330;52.08032700;5.40923460;2023-04-24T10:21:56;13.20;89.70
6536;DHT22;34330;52.08032700;5.40923460;2023-04-24T10:24:25;13.30;89.90
6536;DHT22;34330;52.08032700;5.40923460;2023-04-24T10:26:53;13.30;90.00
6536;DHT22;34330;52.08032700;5.40923460;2023-04-24T10:29:21;13.40;89.50
6536;DHT22;34330;52.08032700;5.40923460;2023-04-24T10:31:49;13.40;89.20
6536;DHT22;34330;52.08032700;5.40923460;2023-04-24T10:34:20;13.40;89.30
6536;DHT22;34330;52.08032700;5.40923460;2023-04-24T10:36:51;13.30;89.00
6536;DHT22;34330;52.08032700;5.40923460;2023-04-24T10:39:25;13.30;88.70
6536;DHT22;34330;52.08032700;5.40923460;2023-04-24T10:41:54;13.30;88.80
6536;DHT22;34330;52.08032700;5.40923460;2023-04-24T10:44:24;13.30;88.60
6536;DHT22;34330;52.08032700;5.40923460;2023-04-24T10:46:54;13.30;88.20
6536;DHT22;34330;52.08032700;5.40923460;2023-04-24T10:49:28;13.30;87.90
6536;DHT22;34330;52.08032700;5.40923460;2023-04-24T10:52:00;13.40;87.90
6536;DHT22;34330;52.08032700;5.40923460;2023-04-24T10:54:34;13.40;88.40
6536;DHT22;34330;52.08032700;5.40923460;2023-04-24T10:57:27;13.40;87.90
6536;DHT22;34330;52.08032700;5.40923460;2023-04-24T11:00:16;13.50;87.80
6536;DHT22;34330;52.08032700;5.40923460;2023-04-24T11:02:47;13.70;88.00
6536;DHT22;34330;52.08032700;5.40923460;2023-04-24T11:05:20;13.60;88.00
6536;DHT22;34330;52.08032700;5.40923460;2023-04-24T11:08:11;13.70;87.90
6536;DHT22;34330;52.08032700;5.40923460;2023-04-24T11:10:44;13.80;87.60
6536;DHT22;34330;52.08032700;5.40923460;2023-04-24T11:13:15;13.80;87.50
6536;DHT22;34330;52.08032700;5.40923460;2023-04-24T11:15:43;13.90;87.10
6536;DHT22;34330;52.08032700;5.40923460;2023-04-24T11:18:14;13.90;86.10
6536;DHT22;34330;52.08032700;5.40923460;2023-04-24T11:20:43;13.80;85.40
6536;DHT22;34330;52.08032700;5.40923460;2023-04-24T11:23:12;13.80;85.30
6536;DHT22;34330;52.08032700;5.40923460;2023-04-24T11:25:42;14.90;86.50
6536;DHT22;34330;52.08032700;5.40923460;2023-04-24T11:28:14;13.70;86.00
6536;DHT22;34330;52.08032700;5.40923460;2023-04-24T11:30:43;13.60;86.60
6536;DHT22;34330;52.08032700;5.40923460;2023-04-24T11:33:11;13.60;87.10
6536;DHT22;34330;52.08032700;5.40923460;2023-04-24T11:35:47;13.50;87.30
6536;DHT22;34330;52.08032700;5.40923460;2023-04-24T11:38:17;13.40;87.40
6536;DHT22;34330;52.08032700;5.40923460;2023-04-24T11:40:52;13.40;87.60
6536;DHT22;34330;52.08032700;5.40923460;2023-04-24T11:43:21;13.30;88.30
6536;DHT22;34330;52.08032700;5.40923460;2023-04-24T11:45:49;13.30;88.10
6536;DHT22;34330;52.08032700;5.40923460;2023-04-24T11:48:19;13.30;88.30
6536;DHT22;34330;52.08032700;5.40923460;2023-04-24T11:50:51;13.40;89.40
6536;DHT22;34330;52.08032700;5.40923460;2023-04-24T11:53:19;13.40;89.10
6536;DHT22;34330;52.08032700;5.40923460;2023-04-24T11:55:48;13.40;89.00
6536;DHT22;34330;52.08032700;5.40923460;2023-04-24T11:58:20;15.30;90.10
6536;DHT22;34330;52.08032700;5.40923460;2023-04-24T12:00:56;13.50;88.10
6536;DHT22;34330;52.08032700;5.40923460;2023-04-24T12:03:24;13.60;88.10
6536;DHT22;34330;52.08032700;5.40923460;2023-04-24T12:05:52;13.80;87.50
6536;DHT22;34330;52.08032700;5.40923460;2023-04-24T12:08:31;13.80;87.00
6536;DHT22;34330;52.08032700;5.40923460;2023-04-24T12:11:01;13.90;86.90
6536;DHT22;34330;52.08032700;5.40923460;2023-04-24T12:13:31;14.20;87.10
6536;DHT22;34330;52.08032700;5.40923460;2023-04-24T12:15:59;14.10;86.10
6536;DHT22;34330;52.08032700;5.40923460;2023-04-24T12:18:27;14.20;85.20
6536;DHT22;34330;52.08032700;5.40923460;2023-04-24T12:21:03;14.20;85.10
6536;DHT22;34330;52.08032700;5.40923460;2023-04-24T12:23:43;14.30;84.80
6536;DHT22;34330;52.08032700;5.40923460;2023-04-24T12:26:11;14.30;84.40
6536;DHT22;34330;52.08032700;5.40923460;2023-04-24T12:28:41;14.30;83.70
6536;DHT22;34330;52.08032700;5.40923460;2023-04-24T12:31:08;14.30;83.40
6536;DHT22;34330;52.08032700;5.40923460;2023-04-24T12:33:37;14.30;83.50
6536;DHT22;34330;52.08032700;5.40923460;2023-04-24T12:36:09;14.40;83.60
6536;DHT22;34330;52.08032700;5.40923460;2023-04-24T12:38:39;14.30;83.40
6536;DHT22;34330;52.08032700;5.40923460;2023-04-24T12:41:08;14.40;83.10
6536;DHT22;34330;52.08032700;5.40923460;2023-04-24T12:43:37;14.40;82.80
6536;DHT22;34330;52.08032700;5.40923460;2023-04-24T12:46:07;14.40;82.60
6536;DHT22;34330;52.08032700;5.40923460;2023-04-24T12:48:35;14.50;81.80
6536;DHT22;34330;52.08032700;5.40923460;2023-04-24T12:51:03;14.50;81.80
6536;DHT22;34330;52.08032700;5.40923460;2023-04-24T12:53:31;14.50;81.20
6536;DHT22;34330;52.08032700;5.40923460;2023-04-24T12:55:59;14.50;81.00
6536;DHT22;34330;52.08032700;5.40923460;2023-04-24T12:58:27;14.40;80.30
6536;DHT22;34330;52.08032700;5.40923460;2023-04-24T13:00:55;14.40;80.80
6536;DHT22;34330;52.08032700;5.40923460;2023-04-24T13:03:24;14.40;80.90
6536;DHT22;34330;52.08032700;5.40923460;2023-04-24T13:05:52;14.40;80.20
6536;DHT22;34330;52.08032700;5.40923460;2023-04-24T13:08:20;14.30;79.40
6536;DHT22;34330;52.08032700;5.40923460;2023-04-24T13:10:49;14.20;79.50
6536;DHT22;34330;52.08032700;5.40923460;2023-04-24T13:13:17;14.20;79.00
6536;DHT22;34330;52.08032700;5.40923460;2023-04-24T13:15:45;14.10;78.80
6536;DHT22;34330;52.08032700;5.40923460;2023-04-24T13:18:13;14.00;78.80
6536;DHT22;34330;52.08032700;5.40923460;2023-04-24T13:20:43;14.00;79.50
6536;DHT22;34330;52.08032700;5.40923460;2023-04-24T13:23:12;13.90;80.00
6536;DHT22;34330;52.08032700;5.40923460;2023-04-24T13:25:40;15.10;82.00
6536;DHT22;34330;52.08032700;5.40923460;2023-04-24T13:28:08;13.80;80.70
6536;DHT22;34330;52.08032700;5.40923460;2023-04-24T13:30:37;13.90;81.20
6536;DHT22;34330;52.08032700;5.40923460;2023-04-24T13:33:05;13.90;82.20
6536;DHT22;34330;52.08032700;5.40923460;2023-04-24T13:35:32;14.00;81.90
6536;DHT22;34330;52.08032700;5.40923460;2023-04-24T13:38:02;14.10;80.80
6536;DHT22;34330;52.08032700;5.40923460;2023-04-24T13:40:32;14.20;79.80
6536;DHT22;34330;52.08032700;5.40923460;2023-04-24T13:43:01;14.30;79.20
6536;DHT22;34330;52.08032700;5.40923460;2023-04-24T13:45:29;14.40;79.50